Latest Weather Observations for King Island Airport

IDT60801

Issued at 7:21 am EST Thursday 1 October 2020 (issued every 10 minutes, with the page automatically refreshed every 10 minutes)

About weather observations | Map of weather stations | Latest weather observations for TAS | Other Formats
Station Details ID: 098017 Name: KING ISLAND AIRPORT Lat: -39.88 Lon: 143.89 Height: 35.42 m
Data from the previous 72 hours. | See also: Recent months at King Island Airport
Date/Time
EST
Temp
°C
App
Temp
°C
Dew
Point
°C
Rel
Hum
%
Delta-T
°C
Wind Press
QNH
hPa
Press
MSL
hPa
Rain since
9am
mm
Dir  Spd
km/h
Gust
km/h
Spd
kts
Gust
kts
01/07:00am 10.5 5.0 5.7 72 2.2 W 24 39 13 21 1012.3 1012.3 2.0
01/06:30am 9.9 3.1 5.1 72 2.2 W 30 41 16 22 1012.0 1012.0 2.0
01/06:00am 10.3 4.6 4.7 68 2.5 WSW 24 41 13 22 1011.3 1011.3 2.0
01/05:30am 10.0 4.5 5.8 75 1.9 WSW 24 32 13 17 1010.8 1010.8 2.0
01/05:00am 10.2 3.0 5.2 71 2.3 W 32 41 17 22 1010.4 1010.4 2.0
01/04:30am 10.3 3.5 4.9 69 2.4 W 30 43 16 23 1010.1 1010.1 2.0
01/04:00am 10.1 4.1 5.1 71 2.3 W 26 37 14 20 1009.8 1009.8 2.0
01/03:30am 10.5 3.5 6.1 74 2.0 W 32 43 17 23 1009.5 1009.5 2.0
01/03:00am 10.1 4.2 5.9 75 1.9 W 26 41 14 22 1009.3 1009.3 2.0
01/02:30am 10.4 3.4 6.0 74 2.0 W 32 44 17 24 1009.2 1009.2 2.0
01/02:01am 9.9 3.3 5.9 76 1.8 WSW 30 48 16 26 1009.0 1009.0 2.0
01/02:00am 9.9 2.9 6.1 77 1.8 WSW 32 48 17 26 1009.0 1009.0 2.0
01/01:30am 10.1 3.8 5.7 74 2.0 W 28 48 15 26 1008.8 1008.8 2.0
01/01:21am 10.1 3.9 6.3 77 1.8 W 28 48 15 26 1008.8 1008.8 2.0
01/01:00am 10.1 3.7 6.8 80 1.6 W 30 44 16 24 1008.6 1008.6 2.0
01/12:38am 10.3 3.1 5.9 74 2.0 W 33 52 18 28 1008.4 1008.4 2.0
01/12:30am 9.8 2.6 5.0 72 2.2 W 32 44 17 24 1008.5 1008.5 2.0
01/12:15am 10.4 1.9 5.2 70 2.4 W 39 63 21 34 1008.2 1008.2 1.8
01/12:00am 11.0 3.9 6.4 73 2.2 W 33 48 18 26 1008.0 1008.0 1.8
 
Date/Time
EST
Temp
°C
App
Temp
°C
Dew
Point
°C
Rel
Hum
%
Delta-T
°C
Wind Press
QNH
hPa
Press
MSL
hPa
Rain since
9am
mm
Dir  Spd
km/h
Gust
km/h
Spd
kts
Gust
kts
30/11:30pm 11.4 4.1 7.1 75 2.1 W 35 54 19 29 1007.7 1007.7 1.8
30/11:25pm 11.3 4.5 7.0 75 2.1 W 32 50 17 27 1007.6 1007.6 1.8
30/11:00pm 11.4 5.0 7.1 75 2.1 W 30 41 16 22 1007.5 1007.5 1.8
30/10:32pm 11.2 4.3 7.1 76 2.0 W 33 52 18 28 1007.4 1007.4 1.8
30/10:30pm 11.3 4.7 7.6 78 1.8 W 32 44 17 24 1007.5 1007.5 1.8
30/10:11pm 11.5 4.7 7.8 78 1.8 W 33 52 18 28 1007.3 1007.3 1.8
30/10:00pm 11.5 5.4 8.4 81 1.5 W 30 43 16 23 1007.3 1007.3 1.8
30/09:30pm 11.8 5.4 8.6 81 1.6 W 32 44 17 24 1007.1 1007.1 1.8
30/09:00pm 12.0 5.6 9.4 84 1.3 W 33 46 18 25 1006.8 1006.8 1.8
30/08:49pm 12.0 6.2 9.4 84 1.3 W 30 48 16 26 1006.7 1006.7 1.8
30/08:30pm 12.0 5.8 9.2 83 1.4 W 32 41 17 22 1006.4 1006.4 1.8
30/08:00pm 11.8 7.2 11.0 95 0.4 WNW 26 35 14 19 1006.2 1006.2 1.8
30/07:30pm 11.1 6.7 10.3 95 0.4 WNW 24 37 13 20 1005.8 1005.8 1.8
30/07:00pm 10.8 6.8 10.6 99 0.1 WNW 22 32 12 17 1005.4 1005.4 1.8
30/06:30pm 11.1 7.8 10.9 99 0.1 W 19 24 10 13 1004.9 1004.9 1.8
30/06:22pm 11.1 8.2 10.9 99 0.1 W 17 22 9 12 1004.6 1004.6 1.8
30/06:18pm 11.3 7.9 11.1 99 0.1 W 20 32 11 17 1004.2 1004.2 1.8
30/06:10pm 12.0 6.3 11.8 99 0.1 W 33 52 18 28 1004.5 1004.5 1.6
30/06:08pm 12.0 5.9 11.8 99 0.1 W 35 52 19 28 1004.6 1004.6 1.6
30/06:03pm 12.5 6.2 12.3 99 0.1 WNW 37 52 20 28 1004.8 1004.8 1.2
30/06:00pm 12.6 6.3 12.4 99 0.1 WNW 37 48 20 26 1004.7 1004.7 0.8
30/05:30pm 12.9 7.2 11.8 93 0.6 WNW 33 43 18 23 1004.5 1004.5 0.2
30/05:00pm 12.6 7.4 11.5 93 0.6 NW 30 39 16 21 1004.3 1004.3 0.2
30/04:30pm 12.6 8.0 12.4 99 0.1 NW 28 35 15 19 1004.2 1004.2 0.2
30/04:00pm 12.5 7.9 12.3 99 0.1 NW 28 33 15 18 1004.2 1004.2 0.2
30/03:45pm 12.7 8.2 12.5 99 0.1 WNW 28 35 15 19 1004.3 1004.3 0.2
30/03:34pm 12.6 7.1 12.4 99 0.1 WNW 33 43 18 23 1004.5 1004.5 0.2
30/03:30pm 12.6 6.7 12.4 99 0.1 WNW 35 54 19 29 1004.5 1004.5 0.2
30/03:24pm 12.7 6.8 12.5 99 0.1 NW 35 54 19 29 1004.5 1004.5 0.2
30/03:22pm 13.0 7.2 12.8 99 0.1 NW 35 54 19 29 1004.4 1004.4 0.2
30/03:14pm 13.7 8.5 13.4 98 0.2 NNW 33 44 18 24 1004.4 1004.4 0.0
30/03:00pm 14.5 10.1 13.0 91 0.8 NNW 28 39 15 21 1004.4 1004.4 0.0
30/02:30pm 15.1 9.8 12.4 84 1.5 NNW 32 39 17 21 1004.7 1004.7 0.0
30/02:00pm 14.6 9.2 12.3 86 1.3 NNW 32 39 17 21 1005.1 1005.1 0.0
30/01:30pm 15.0 9.6 12.1 83 1.6 NNW 32 41 17 22 1005.5 1005.5 0.0
30/01:00pm 15.5 9.3 11.3 76 2.3 N 35 48 19 26 1005.9 1005.9 0.0
30/12:30pm 15.8 9.4 10.8 72 2.7 N 35 44 19 24 1006.2 1006.2 0.0
30/12:00pm 16.8 10.6 10.2 65 3.5 N 33 48 18 26 1006.4 1006.4 0.0
30/11:30am 16.0 11.6 10.3 69 3.0 N 24 35 13 19 1006.9 1006.9 0.0
30/11:00am 15.5 9.2 9.0 65 3.3 N 32 41 17 22 1007.7 1007.7 0.0
30/10:30am 15.4 9.8 10.0 70 2.8 NNW 30 37 16 20 1008.2 1008.2 0.0
30/10:00am 15.5 9.3 10.1 70 2.8 N 33 44 18 24 1008.6 1008.6 0.0
30/09:30am 15.2 10.5 10.6 74 2.4 N 26 35 14 19 1008.8 1008.8 0.0
30/09:00am 14.3 10.1 11.1 81 1.7 N 24 32 13 17 1009.1 1009.1 0.2
30/08:30am 14.3 10.3 10.3 77 2.1 N 22 37 12 20 1009.3 1009.3 0.2
30/08:00am 14.3 9.7 9.7 74 2.4 N 24 32 13 17 1009.3 1009.3 0.0
30/07:30am 14.0 11.0 10.6 80 1.8 NNE 17 26 9 14 1009.3 1009.3 0.0
30/07:00am 13.4 10.3 10.4 82 1.6 N 17 24 9 13 1009.6 1009.6 0.0
30/06:30am 13.2 9.2 10.6 84 1.4 N 22 28 12 15 1009.6 1009.6 0.0
30/06:00am 12.9 9.5 10.4 85 1.3 NNE 19 24 10 13 1009.6 1009.6 0.0
30/05:30am 13.0 9.8 10.0 82 1.5 NNE 17 22 9 12 1009.9 1009.9 0.0
30/05:00am 12.9 8.3 9.7 81 1.6 NNE 24 32 13 17 1010.0 1010.0 0.0
30/04:30am 13.3 9.0 9.2 76 2.1 NNE 22 28 12 15 1010.2 1010.2 0.0
30/04:00am 13.7 8.9 9.0 73 2.4 NNE 24 32 13 17 1010.5 1010.5 0.0
30/03:30am 13.5 10.2 9.7 78 2.0 NNE 17 24 9 13 1010.7 1010.7 0.0
30/03:00am 14.0 9.8 9.6 75 2.3 N 22 28 12 15 1011.3 1011.3 0.0
30/02:30am 14.2 10.5 10.0 76 2.2 N 20 30 11 16 1011.7 1011.7 0.0
30/02:00am 13.6 10.5 10.2 80 1.8 N 17 26 9 14 1012.0 1012.0 0.0
30/01:30am 13.4 9.9 10.2 81 1.7 NNE 19 30 10 16 1012.2 1012.2 0.0
30/01:00am 13.3 9.6 10.3 82 1.6 NNE 20 28 11 15 1012.2 1012.2 0.0
30/12:30am 13.2 9.6 10.6 84 1.4 NE 20 28 11 15 1012.5 1012.5 0.0
30/12:00am 12.7 9.7 10.8 88 1.0 ENE 17 20 9 11 1013.0 1013.0 0.0
 
Date/Time
EST
Temp
°C
App
Temp
°C
Dew
Point
°C
Rel
Hum
%
Delta-T
°C
Wind Press
QNH
hPa
Press
MSL
hPa
Rain since
9am
mm
Dir  Spd
km/h
Gust
km/h
Spd
kts
Gust
kts
29/11:30pm 12.3 9.5 11.2 93 0.6 ENE 17 22 9 12 1013.4 1013.4 0.0
29/11:00pm 12.1 9.3 11.5 96 0.3 ENE 17 22 9 12 1013.8 1013.8 0.0
29/10:30pm 11.9 9.5 11.3 96 0.3 ENE 15 20 8 11 1014.3 1014.3 0.0
29/10:00pm 11.8 9.0 11.2 96 0.3 ENE 17 22 9 12 1014.9 1014.9 0.0
29/09:30pm 11.9 8.7 11.3 96 0.3 ENE 19 24 10 13 1015.2 1015.2 0.0
29/09:00pm 12.1 8.7 11.2 94 0.5 ENE 20 30 11 16 1015.7 1015.7 0.0
29/08:30pm 12.1 8.3 11.0 93 0.6 ENE 22 28 12 15 1016.1 1016.1 0.0
29/08:00pm 11.8 8.0 11.0 95 0.4 ENE 22 32 12 17 1015.8 1015.8 0.0
29/07:30pm 11.5 8.0 11.0 97 0.3 ENE 20 26 11 14 1016.2 1016.2 0.0
29/07:00pm 11.4 7.9 10.8 96 0.3 ENE 20 28 11 15 1016.2 1016.2 0.0
29/06:30pm 11.6 8.0 10.7 94 0.5 ENE 20 28 11 15 1016.5 1016.5 0.0
29/06:00pm 11.8 7.7 10.0 89 0.9 ENE 22 30 12 16 1016.5 1016.5 0.0
29/05:30pm 12.2 8.0 9.9 86 1.2 ENE 22 30 12 16 1016.7 1016.7 0.0
29/05:00pm 12.6 8.7 9.6 82 1.5 ENE 20 28 11 15 1016.8 1016.8 0.0
29/04:30pm 12.9 8.2 9.4 79 1.8 ENE 24 30 13 16 1017.1 1017.2 0.0
29/04:00pm 13.5 9.3 9.6 77 2.0 NE 22 30 12 16 1017.3 1017.4 0.0
29/03:30pm 13.8 9.2 9.8 77 2.1 NE 24 30 13 16 1017.8 1017.9 0.0
29/03:00pm 13.8 9.2 9.6 76 2.2 NE 24 33 13 18 1018.0 1018.1 0.0
29/02:30pm 14.0 9.5 10.0 77 2.1 NE 24 32 13 17 1017.9 1018.0 0.0
29/02:00pm 13.9 9.2 9.3 74 2.3 ENE 24 33 13 18 1018.3 1018.4 0.0
29/01:30pm 13.7 8.7 9.4 75 2.2 NE 26 35 14 19 1019.0 1019.1 0.0
29/01:00pm 13.8 9.2 9.6 76 2.1 NE 24 35 13 19 1020.0 1020.1 0.0
29/12:30pm 13.7 8.2 9.2 74 2.3 ENE 28 35 15 19 1020.9 1021.0 0.0
29/12:00pm 13.5 7.6 9.0 74 2.3 ENE 30 39 16 21 1020.9 1021.0 0.0
29/11:30am 13.1 7.0 8.4 73 2.3 ENE 30 39 16 21 1021.3 1021.4 0.0
29/11:00am 13.2 8.1 9.1 76 2.1 ENE 26 35 14 19 1021.9 1022.0 0.0
29/10:30am 12.4 7.2 8.7 78 1.8 ENE 26 35 14 19 1022.6 1022.7 0.0
29/10:00am 12.5 7.6 8.6 77 1.9 NE 24 32 13 17 1023.1 1023.2 0.0
29/09:30am 11.5 6.8 7.8 78 1.8 NE 22 30 12 16 1023.5 1023.6 0.0
29/09:00am 11.0 6.2 7.5 79 1.7 NE 22 30 12 16 1023.7 1023.8 0.0
29/08:30am 10.6 6.3 7.8 83 1.4 NE 20 26 11 14 1024.0 1024.1 0.0
29/08:00am 9.8 6.4 7.7 87 1.0 NE 15 20 8 11 1024.4 1024.5 0.0
29/07:30am 8.4 6.1 7.3 93 0.5 NE 9 13 5 7 1024.9 1024.9 0.0
29/07:00am 7.1 4.6 6.5 96 0.3 NNE 9 11 5 6 1025.0 1025.0 0.0
29/06:30am 6.8 4.1 5.7 93 0.5 NE 9 13 5 7 1024.2 1024.3 0.0
29/06:00am 7.5 4.5 6.1 91 0.6 NE 11 13 6 7 1023.6 1023.7 0.0
29/05:30am 8.1 4.8 6.4 89 0.8 NE 13 17 7 9 1023.5 1023.6 0.0
29/05:00am 8.1 5.6 6.7 91 0.6 NE 9 11 5 6 1023.6 1023.7 0.0
29/04:30am 8.0 5.5 6.6 91 0.6 NNE 9 11 5 6 1023.7 1023.8 0.0
29/04:00am 8.0 5.5 6.5 90 0.7 NE 9 13 5 7 1023.4 1023.5 0.0
29/03:30am 8.0 5.8 6.3 89 0.8 ENE 7 11 4 6 1023.5 1023.6 0.0
29/03:00am 8.1 5.6 6.6 90 0.7 ENE 9 13 5 7 1023.8 1023.9 0.0
29/02:30am 8.7 8.0 6.8 88 0.9 CALM 0 0 0 0 1024.6 1024.7 0.0
29/02:00am 8.4 7.7 7.0 91 0.6 CALM 0 0 0 0 1025.4 1025.4 0.0
29/01:30am 8.5 7.8 7.1 91 0.7 CALM 0 0 0 0 1025.9 1025.9 0.0
29/01:00am 8.4 7.7 7.0 91 0.6 CALM 0 6 0 3 1026.1 1026.1 0.0
29/12:30am 8.1 7.3 6.7 91 0.6 CALM 0 0 0 0 1026.4 1026.4 0.0
29/12:00am 7.8 7.0 6.4 91 0.6 CALM 0 0 0 0 1026.4 1026.4 0.0
 
Date/Time
EST
Temp
°C
App
Temp
°C
Dew
Point
°C
Rel
Hum
%
Delta-T
°C
Wind Press
QNH
hPa
Press
MSL
hPa
Rain since
9am
mm
Dir  Spd
km/h
Gust
km/h
Spd
kts
Gust
kts
28/11:30pm 7.5 6.5 5.8 89 0.8 CALM 0 0 0 0 1026.2 1026.2 0.0
28/11:00pm 8.2 7.3 6.2 87 0.9 CALM 0 0 0 0 1026.4 1026.4 0.0
28/10:30pm 8.3 6.2 5.9 85 1.1 SE 6 7 3 4 1026.4 1026.4 0.0
28/10:00pm 8.7 6.6 5.8 82 1.3 SSE 6 9 3 5 1027.0 1027.0 0.0
28/09:30pm 9.0 6.3 5.6 79 1.5 S 9 13 5 7 1027.3 1027.3 0.0
28/09:00pm 9.2 6.9 5.9 80 1.5 SSE 7 13 4 7 1027.4 1027.4 0.0
28/08:30pm 9.3 6.3 6.0 80 1.5 SSE 11 19 6 10 1027.5 1027.5 0.0
28/08:00pm 9.5 7.0 6.4 81 1.4 SSE 9 13 5 7 1027.4 1027.4 0.0
28/07:30pm 9.4 6.0 5.8 78 1.6 SE 13 17 7 9 1027.3 1027.3 0.0
28/07:00pm 9.5 6.8 5.7 77 1.7 SSE 9 13 5 7 1027.2 1027.2 0.0
28/06:30pm 9.6 6.5 5.6 76 1.8 S 11 17 6 9 1027.2 1027.2 0.0
28/06:00pm 9.9 7.2 5.7 75 1.9 S 9 13 5 7 1027.3 1027.3 0.0
28/05:30pm 10.1 6.3 5.7 74 2.0 SW 15 19 8 10 1027.3 1027.3 0.0
28/05:00pm 10.3 6.9 6.1 75 1.9 SSW 13 20 7 11 1027.3 1027.3 0.0
28/04:30pm 10.4 7.0 5.8 73 2.1 SW 13 20 7 11 1027.4 1027.4 0.0
28/04:00pm 10.9 6.1 5.7 70 2.4 SW 20 26 11 14 1027.3 1027.3 0.0
28/03:30pm 11.9 7.8 6.2 68 2.7 SSW 17 26 9 14 1027.0 1027.0 0.0
28/03:00pm 12.0 7.4 6.5 69 2.6 SSW 20 28 11 15 1027.2 1027.2 0.0
28/02:30pm 12.0 8.2 5.6 65 3.0 SSW 15 20 8 11 1027.5 1027.5 0.0
28/02:00pm 11.1 6.3 4.8 65 2.8 SSW 19 24 10 13 1027.8 1027.8 0.0
28/01:30pm 11.8 8.2 5.2 64 3.0 SW 13 20 7 11 1028.0 1028.0 0.0
28/01:00pm 12.2 8.1 6.3 67 2.8 SSW 17 22 9 12 1028.3 1028.3 0.0
28/12:30pm 11.3 6.9 4.7 64 3.0 SSW 17 26 9 14 1028.8 1028.8 0.0
28/12:00pm 10.7 6.3 4.6 66 2.7 SSW 17 24 9 13 1028.9 1028.9 0.0
28/11:30am 10.9 6.2 5.2 68 2.6 SW 19 24 10 13 1029.0 1029.0 0.0
28/11:00am 11.3 7.5 5.6 68 2.6 SSW 15 22 8 12 1029.2 1029.2 0.0
28/10:30am 10.8 6.8 5.1 68 2.6 SSW 15 24 8 13 1029.4 1029.4 0.0
28/10:00am 10.6 6.7 5.4 70 2.4 SSW 15 20 8 11 1029.5 1029.5 0.0
28/09:30am 10.2 5.7 4.1 66 2.7 SW 17 20 9 11 1029.5 1029.5 0.0
28/09:00am 10.0 5.5 4.4 68 2.5 SW 17 22 9 12 1029.5 1029.5 0.0
28/08:30am 9.7 4.7 3.4 65 2.7 SSW 19 22 10 12 1029.4 1029.4 0.0
28/08:00am 9.4 4.9 4.2 70 2.3 SSW 17 24 9 13 1029.4 1029.4 0.0
28/07:30am 9.2 5.3 3.6 68 2.4 S 13 22 7 12 1029.2 1029.2 0.0

Other formats

Comma delimited format used in spreadsheet applications
http://www.bom.gov.au/fwo/IDT60801/IDT60801.94850.axf

JavaScript Object Notation format (JSON) in row-major order
http://www.bom.gov.au/fwo/IDT60801/IDT60801.94850.json

Data quality

Most of these data are generated automatically and are frequently updated. Quality checks on data are not normally performed. It is possible for incorrect values to appear. Refer to information at About Latest Weather Observations and please check the disclaimer before using these data.